Waterville, Vermont
Current Conditions -  °F | °C
As of 4:54 PM on Saturday 25 Oct 2014 (Local Time) from KMVL Reporting Station
Scattered Clouds Scattered Clouds  
Wind Chill: 13°   Ceiling: Unl
Heat Index: 13°   Visibility: 10mi
Dew Point:   Wind: 6mph
Humidity: 57%   Direction: 210°SSW
Pressure: 29.57"   Gusts: NA
Location:  44.69°N, 72.77°W
Report Text: KMVL 252054Z AUTO 21005KT 10SM FEW055 SCT110 13/05 A2957 RMK AO2 SLP017 T01330050 56014
Loading
Personal Weather Stations






























Interactive Weather Map New forecast layout! Learn more

10-Day Weather Forecast

Advertisements
Track Severe Weather on mobile